sensor_id;sensor_type;location;lat;lon;timestamp;temperature;humidity
26063;DHT22;13837;48.562;12.108;2023-01-08T00:00:30;0.60;99.90
26063;DHT22;13837;48.562;12.108;2023-01-08T00:02:56;0.70;99.90
26063;DHT22;13837;48.562;12.108;2023-01-08T00:05:21;0.70;99.90
26063;DHT22;13837;48.562;12.108;2023-01-08T00:07:47;0.60;99.90
26063;DHT22;13837;48.562;12.108;2023-01-08T00:10:13;0.50;99.90
26063;DHT22;13837;48.562;12.108;2023-01-08T00:12:38;0.60;99.90
26063;DHT22;13837;48.562;12.108;2023-01-08T00:15:04;0.60;99.90
26063;DHT22;13837;48.562;12.108;2023-01-08T00:17:30;0.60;99.90
26063;DHT22;13837;48.562;12.108;2023-01-08T00:19:56;0.40;99.90
26063;DHT22;13837;48.562;12.108;2023-01-08T00:22:22;0.40;99.90
26063;DHT22;13837;48.562;12.108;2023-01-08T00:24:47;0.40;99.90
26063;DHT22;13837;48.562;12.108;2023-01-08T00:27:13;0.30;99.90
26063;DHT22;13837;48.562;12.108;2023-01-08T00:29:39;0.40;99.90
26063;DHT22;13837;48.562;12.108;2023-01-08T00:32:05;0.50;99.90
26063;DHT22;13837;48.562;12.108;2023-01-08T00:34:30;0.50;99.90
26063;DHT22;13837;48.562;12.108;2023-01-08T00:36:56;0.50;99.90
26063;DHT22;13837;48.562;12.108;2023-01-08T00:39:22;0.70;99.90
26063;DHT22;13837;48.562;12.108;2023-01-08T00:41:47;0.70;99.90
26063;DHT22;13837;48.562;12.108;2023-01-08T00:44:14;0.70;99.90
26063;DHT22;13837;48.562;12.108;2023-01-08T00:46:39;0.80;99.90
26063;DHT22;13837;48.562;12.108;2023-01-08T00:49:05;0.80;99.90
26063;DHT22;13837;48.562;12.108;2023-01-08T00:51:31;0.80;99.90
26063;DHT22;13837;48.562;12.108;2023-01-08T00:53:56;0.80;99.90
26063;DHT22;13837;48.562;12.108;2023-01-08T00:56:22;0.80;99.90
26063;DHT22;13837;48.562;12.108;2023-01-08T00:58:48;0.80;99.90
26063;DHT22;13837;48.562;12.108;2023-01-08T01:01:14;0.80;99.90
26063;DHT22;13837;48.562;12.108;2023-01-08T01:03:40;0.80;99.90
26063;DHT22;13837;48.562;12.108;2023-01-08T01:06:06;0.80;99.90
26063;DHT22;13837;48.562;12.108;2023-01-08T01:08:33;0.90;99.90
26063;DHT22;13837;48.562;12.108;2023-01-08T01:10:59;0.90;99.90
26063;DHT22;13837;48.562;12.108;2023-01-08T01:13:24;0.90;99.90
26063;DHT22;13837;48.562;12.108;2023-01-08T01:16:00;1.00;99.90
26063;DHT22;13837;48.562;12.108;2023-01-08T01:18:27;1.00;99.90
26063;DHT22;13837;48.562;12.108;2023-01-08T01:20:53;1.10;99.90
26063;DHT22;13837;48.562;12.108;2023-01-08T01:23:19;1.00;99.90
26063;DHT22;13837;48.562;12.108;2023-01-08T01:25:48;1.10;99.90
26063;DHT22;13837;48.562;12.108;2023-01-08T01:28:13;1.00;99.90
26063;DHT22;13837;48.562;12.108;2023-01-08T01:30:40;1.00;99.90
26063;DHT22;13837;48.562;12.108;2023-01-08T01:33:06;1.00;99.90
26063;DHT22;13837;48.562;12.108;2023-01-08T01:35:32;0.90;99.90
26063;DHT22;13837;48.562;12.108;2023-01-08T01:37:57;0.90;99.90
26063;DHT22;13837;48.562;12.108;2023-01-08T01:40:23;0.80;99.90
26063;DHT22;13837;48.562;12.108;2023-01-08T01:42:48;0.90;99.90
26063;DHT22;13837;48.562;12.108;2023-01-08T01:45:19;0.90;99.90
26063;DHT22;13837;48.562;12.108;2023-01-08T01:50:45;0.80;99.90
26063;DHT22;13837;48.562;12.108;2023-01-08T01:53:20;0.80;99.90
26063;DHT22;13837;48.562;12.108;2023-01-08T01:55:47;0.70;99.90
26063;DHT22;13837;48.562;12.108;2023-01-08T01:58:16;0.50;99.90
26063;DHT22;13837;48.562;12.108;2023-01-08T02:00:43;0.60;99.90
26063;DHT22;13837;48.562;12.108;2023-01-08T02:03:10;0.60;99.90
26063;DHT22;13837;48.562;12.108;2023-01-08T02:05:49;0.70;99.90
26063;DHT22;13837;48.562;12.108;2023-01-08T02:11:16;0.60;99.90
26063;DHT22;13837;48.562;12.108;2023-01-08T02:13:51;0.60;99.90
26063;DHT22;13837;48.562;12.108;2023-01-08T02:16:33;0.60;99.90
26063;DHT22;13837;48.562;12.108;2023-01-08T02:19:29;0.60;99.90
26063;DHT22;13837;48.562;12.108;2023-01-08T02:21:56;0.60;99.90
26063;DHT22;13837;48.562;12.108;2023-01-08T02:24:52;0.50;99.90
26063;DHT22;13837;48.562;12.108;2023-01-08T02:27:16;0.50;99.90
26063;DHT22;13837;48.562;12.108;2023-01-08T02:29:43;0.50;99.90
26063;DHT22;13837;48.562;12.108;2023-01-08T02:32:09;0.40;99.90
26063;DHT22;13837;48.562;12.108;2023-01-08T02:34:35;0.40;99.90
26063;DHT22;13837;48.562;12.108;2023-01-08T02:37:01;0.40;99.90
26063;DHT22;13837;48.562;12.108;2023-01-08T02:39:49;0.40;99.90
26063;DHT22;13837;48.562;12.108;2023-01-08T02:47:35;0.40;99.90
26063;DHT22;13837;48.562;12.108;2023-01-08T02:50:09;0.40;99.90
26063;DHT22;13837;48.562;12.108;2023-01-08T02:52:52;0.40;99.90
26063;DHT22;13837;48.562;12.108;2023-01-08T02:55:21;0.40;99.90
26063;DHT22;13837;48.562;12.108;2023-01-08T02:57:48;0.30;99.90
26063;DHT22;13837;48.562;12.108;2023-01-08T03:00:14;0.30;99.90
26063;DHT22;13837;48.562;12.108;2023-01-08T03:02:41;0.20;99.90
26063;DHT22;13837;48.562;12.108;2023-01-08T03:05:15;0.20;99.90
26063;DHT22;13837;48.562;12.108;2023-01-08T03:07:45;0.20;99.90
26063;DHT22;13837;48.562;12.108;2023-01-08T03:10:11;0.20;99.90
26063;DHT22;13837;48.562;12.108;2023-01-08T03:12:40;0.20;99.90
26063;DHT22;13837;48.562;12.108;2023-01-08T03:15:09;0.20;99.90
26063;DHT22;13837;48.562;12.108;2023-01-08T03:17:44;0.20;99.90
26063;DHT22;13837;48.562;12.108;2023-01-08T03:20:14;0.20;99.90
26063;DHT22;13837;48.562;12.108;2023-01-08T03:22:44;0.10;99.90
26063;DHT22;13837;48.562;12.108;2023-01-08T03:25:12;0.20;99.90
26063;DHT22;13837;48.562;12.108;2023-01-08T03:27:42;0.10;99.90
26063;DHT22;13837;48.562;12.108;2023-01-08T03:30:09;0.10;99.90
26063;DHT22;13837;48.562;12.108;2023-01-08T03:32:38;0.10;99.90
26063;DHT22;13837;48.562;12.108;2023-01-08T03:35:05;0.10;99.90
26063;DHT22;13837;48.562;12.108;2023-01-08T03:37:35;0.10;99.90
26063;DHT22;13837;48.562;12.108;2023-01-08T03:40:03;0.00;99.90
26063;DHT22;13837;48.562;12.108;2023-01-08T03:42:31;0.00;99.90
26063;DHT22;13837;48.562;12.108;2023-01-08T03:44:58;0.00;99.90
26063;DHT22;13837;48.562;12.108;2023-01-08T03:47:26;0.00;99.90
26063;DHT22;13837;48.562;12.108;2023-01-08T03:49:54;0.10;99.90
26063;DHT22;13837;48.562;12.108;2023-01-08T03:52:25;0.10;99.90
26063;DHT22;13837;48.562;12.108;2023-01-08T03:54:52;0.10;99.90
26063;DHT22;13837;48.562;12.108;2023-01-08T03:57:18;0.00;99.90
26063;DHT22;13837;48.562;12.108;2023-01-08T03:59:44;-0.10;99.90
26063;DHT22;13837;48.562;12.108;2023-01-08T04:02:10;-0.20;99.90
26063;DHT22;13837;48.562;12.108;2023-01-08T04:04:36;-0.40;99.90
26063;DHT22;13837;48.562;12.108;2023-01-08T04:07:02;-0.40;99.90
26063;DHT22;13837;48.562;12.108;2023-01-08T04:09:27;-0.30;99.90
26063;DHT22;13837;48.562;12.108;2023-01-08T04:11:53;-0.30;99.90
26063;DHT22;13837;48.562;12.108;2023-01-08T04:14:18;-0.30;99.90
26063;DHT22;13837;48.562;12.108;2023-01-08T04:16:44;-0.30;99.90
26063;DHT22;13837;48.562;12.108;2023-01-08T04:19:11;-0.20;99.90
26063;DHT22;13837;48.562;12.108;2023-01-08T04:21:37;-0.20;99.90
26063;DHT22;13837;48.562;12.108;2023-01-08T04:24:02;-0.20;99.90
26063;DHT22;13837;48.562;12.108;2023-01-08T04:26:28;-0.20;99.90
26063;DHT22;13837;48.562;12.108;2023-01-08T04:28:54;-0.20;99.90
26063;DHT22;13837;48.562;12.108;2023-01-08T04:31:19;-0.10;99.90
26063;DHT22;13837;48.562;12.108;2023-01-08T04:33:45;-0.10;99.90
26063;DHT22;13837;48.562;12.108;2023-01-08T04:36:11;-0.10;99.90
26063;DHT22;13837;48.562;12.108;2023-01-08T04:38:37;-0.10;99.90
26063;DHT22;13837;48.562;12.108;2023-01-08T04:41:02;-0.20;99.90
26063;DHT22;13837;48.562;12.108;2023-01-08T04:43:29;-0.20;99.90
26063;DHT22;13837;48.562;12.108;2023-01-08T04:45:58;-0.20;99.90
26063;DHT22;13837;48.562;12.108;2023-01-08T04:48:24;-0.30;99.90
26063;DHT22;13837;48.562;12.108;2023-01-08T04:50:50;-0.50;99.90
26063;DHT22;13837;48.562;12.108;2023-01-08T04:53:16;-1.00;99.90
26063;DHT22;13837;48.562;12.108;2023-01-08T04:55:41;-1.10;99.90
26063;DHT22;13837;48.562;12.108;2023-01-08T04:58:07;-1.00;99.90
26063;DHT22;13837;48.562;12.108;2023-01-08T05:00:33;-1.00;99.90
26063;DHT22;13837;48.562;12.108;2023-01-08T05:02:59;-1.10;99.90
26063;DHT22;13837;48.562;12.108;2023-01-08T05:05:24;-1.10;99.90
26063;DHT22;13837;48.562;12.108;2023-01-08T05:07:50;-1.20;99.90
26063;DHT22;13837;48.562;12.108;2023-01-08T05:10:16;-1.20;99.90
26063;DHT22;13837;48.562;12.108;2023-01-08T05:12:41;-1.10;99.90
26063;DHT22;13837;48.562;12.108;2023-01-08T05:15:07;-1.10;99.90
26063;DHT22;13837;48.562;12.108;2023-01-08T05:17:33;-1.00;99.90
26063;DHT22;13837;48.562;12.108;2023-01-08T05:19:59;-0.90;99.90
26063;DHT22;13837;48.562;12.108;2023-01-08T05:22:25;-0.80;99.90
26063;DHT22;13837;48.562;12.108;2023-01-08T05:24:50;-0.80;99.90
26063;DHT22;13837;48.562;12.108;2023-01-08T05:27:16;-0.80;99.90
26063;DHT22;13837;48.562;12.108;2023-01-08T05:29:42;-0.70;99.90
26063;DHT22;13837;48.562;12.108;2023-01-08T05:32:14;-0.70;99.90
26063;DHT22;13837;48.562;12.108;2023-01-08T05:34:40;-0.70;99.90
26063;DHT22;13837;48.562;12.108;2023-01-08T05:37:06;-0.80;99.90
26063;DHT22;13837;48.562;12.108;2023-01-08T05:39:32;-0.90;99.90
26063;DHT22;13837;48.562;12.108;2023-01-08T05:41:57;-0.80;99.90
26063;DHT22;13837;48.562;12.108;2023-01-08T05:44:23;-0.70;99.90
26063;DHT22;13837;48.562;12.108;2023-01-08T05:46:49;-0.70;99.90
26063;DHT22;13837;48.562;12.108;2023-01-08T05:49:17;-0.70;99.90
26063;DHT22;13837;48.562;12.108;2023-01-08T05:51:42;-0.70;99.90
26063;DHT22;13837;48.562;12.108;2023-01-08T05:54:08;-0.60;99.90
26063;DHT22;13837;48.562;12.108;2023-01-08T05:56:34;-0.60;99.90
26063;DHT22;13837;48.562;12.108;2023-01-08T05:58:59;-0.50;99.90
26063;DHT22;13837;48.562;12.108;2023-01-08T06:01:25;-0.50;99.90
26063;DHT22;13837;48.562;12.108;2023-01-08T06:03:54;-0.50;99.90
26063;DHT22;13837;48.562;12.108;2023-01-08T06:06:20;-0.50;99.90
26063;DHT22;13837;48.562;12.108;2023-01-08T06:08:45;-0.60;99.90
26063;DHT22;13837;48.562;12.108;2023-01-08T06:11:11;-0.60;99.90
26063;DHT22;13837;48.562;12.108;2023-01-08T06:13:41;-0.60;99.90
26063;DHT22;13837;48.562;12.108;2023-01-08T06:16:07;-0.60;99.90
26063;DHT22;13837;48.562;12.108;2023-01-08T06:18:33;-0.70;99.90
26063;DHT22;13837;48.562;12.108;2023-01-08T06:20:58;-0.60;99.90
26063;DHT22;13837;48.562;12.108;2023-01-08T06:23:24;-0.60;99.90
26063;DHT22;13837;48.562;12.108;2023-01-08T06:25:55;-0.50;99.90
26063;DHT22;13837;48.562;12.108;2023-01-08T06:28:21;-0.60;99.90
26063;DHT22;13837;48.562;12.108;2023-01-08T06:30:47;-0.60;99.90
26063;DHT22;13837;48.562;12.108;2023-01-08T06:33:13;-0.60;99.90
26063;DHT22;13837;48.562;12.108;2023-01-08T06:35:39;-0.60;99.90
26063;DHT22;13837;48.562;12.108;2023-01-08T06:38:05;-0.70;99.90
26063;DHT22;13837;48.562;12.108;2023-01-08T06:40:30;-0.90;99.90
26063;DHT22;13837;48.562;12.108;2023-01-08T06:43:03;-0.90;99.90
26063;DHT22;13837;48.562;12.108;2023-01-08T06:45:30;-0.90;99.90
26063;DHT22;13837;48.562;12.108;2023-01-08T06:48:03;-0.90;99.90
26063;DHT22;13837;48.562;12.108;2023-01-08T06:50:29;-0.90;99.90
26063;DHT22;13837;48.562;12.108;2023-01-08T06:52:55;-1.10;99.90
26063;DHT22;13837;48.562;12.108;2023-01-08T06:55:22;-1.20;99.90
26063;DHT22;13837;48.562;12.108;2023-01-08T06:57:56;-1.30;99.90
26063;DHT22;13837;48.562;12.108;2023-01-08T07:00:22;-1.30;99.90
26063;DHT22;13837;48.562;12.108;2023-01-08T07:02:49;-1.20;99.90
26063;DHT22;13837;48.562;12.108;2023-01-08T07:05:15;-1.10;99.90
26063;DHT22;13837;48.562;12.108;2023-01-08T07:07:41;-1.10;99.90
26063;DHT22;13837;48.562;12.108;2023-01-08T07:10:07;-1.00;99.90
26063;DHT22;13837;48.562;12.108;2023-01-08T07:12:33;-1.00;99.90
26063;DHT22;13837;48.562;12.108;2023-01-08T07:14:58;-0.90;99.90
26063;DHT22;13837;48.562;12.108;2023-01-08T07:17:24;-1.00;99.90
26063;DHT22;13837;48.562;12.108;2023-01-08T07:19:50;-0.90;99.90
26063;DHT22;13837;48.562;12.108;2023-01-08T07:22:15;-1.00;99.90
26063;DHT22;13837;48.562;12.108;2023-01-08T07:24:41;-1.10;99.90
26063;DHT22;13837;48.562;12.108;2023-01-08T07:27:06;-1.10;99.90
26063;DHT22;13837;48.562;12.108;2023-01-08T07:29:32;-1.00;99.90
26063;DHT22;13837;48.562;12.108;2023-01-08T07:31:58;-1.00;99.90
26063;DHT22;13837;48.562;12.108;2023-01-08T07:34:24;-0.90;99.90
26063;DHT22;13837;48.562;12.108;2023-01-08T07:36:49;-0.90;99.90
26063;DHT22;13837;48.562;12.108;2023-01-08T07:39:15;-0.90;99.90
26063;DHT22;13837;48.562;12.108;2023-01-08T07:41:41;-0.90;99.90
26063;DHT22;13837;48.562;12.108;2023-01-08T07:44:06;-0.80;99.90
26063;DHT22;13837;48.562;12.108;2023-01-08T07:46:32;-0.70;99.90
26063;DHT22;13837;48.562;12.108;2023-01-08T07:48:58;-0.60;99.90
26063;DHT22;13837;48.562;12.108;2023-01-08T07:51:23;-0.60;99.90
26063;DHT22;13837;48.562;12.108;2023-01-08T07:53:49;-0.60;99.90
26063;DHT22;13837;48.562;12.108;2023-01-08T07:56:15;-0.50;99.90
26063;DHT22;13837;48.562;12.108;2023-01-08T07:58:41;-0.50;99.90
26063;DHT22;13837;48.562;12.108;2023-01-08T08:01:09;-0.50;99.90
26063;DHT22;13837;48.562;12.108;2023-01-08T08:03:36;-0.30;99.90
26063;DHT22;13837;48.562;12.108;2023-01-08T08:06:02;-0.30;99.90
26063;DHT22;13837;48.562;12.108;2023-01-08T08:08:28;-0.20;99.90
26063;DHT22;13837;48.562;12.108;2023-01-08T08:10:53;-0.10;99.90
26063;DHT22;13837;48.562;12.108;2023-01-08T08:13:19;-0.10;99.90
26063;DHT22;13837;48.562;12.108;2023-01-08T08:15:44;0.00;99.90
26063;DHT22;13837;48.562;12.108;2023-01-08T08:18:10;0.00;99.90
26063;DHT22;13837;48.562;12.108;2023-01-08T08:20:37;0.00;99.90
26063;DHT22;13837;48.562;12.108;2023-01-08T08:23:21;0.00;99.90
26063;DHT22;13837;48.562;12.108;2023-01-08T08:25:46;0.00;99.90
26063;DHT22;13837;48.562;12.108;2023-01-08T08:28:12;-0.20;99.90
26063;DHT22;13837;48.562;12.108;2023-01-08T08:30:38;-0.20;99.90
26063;DHT22;13837;48.562;12.108;2023-01-08T08:33:05;-0.10;99.90
26063;DHT22;13837;48.562;12.108;2023-01-08T08:35:32;0.00;99.90
26063;DHT22;13837;48.562;12.108;2023-01-08T08:37:58;0.10;99.90
26063;DHT22;13837;48.562;12.108;2023-01-08T08:40:25;0.10;99.90
26063;DHT22;13837;48.562;12.108;2023-01-08T08:42:58;0.10;99.90
26063;DHT22;13837;48.562;12.108;2023-01-08T08:45:25;0.20;99.90
26063;DHT22;13837;48.562;12.108;2023-01-08T08:47:51;0.30;99.90
26063;DHT22;13837;48.562;12.108;2023-01-08T08:50:17;0.30;99.90
26063;DHT22;13837;48.562;12.108;2023-01-08T08:52:43;0.30;99.90
26063;DHT22;13837;48.562;12.108;2023-01-08T08:55:13;0.40;99.90
26063;DHT22;13837;48.562;12.108;2023-01-08T08:57:45;0.40;99.90
26063;DHT22;13837;48.562;12.108;2023-01-08T09:00:12;0.50;99.90
26063;DHT22;13837;48.562;12.108;2023-01-08T09:02:38;0.70;99.90
26063;DHT22;13837;48.562;12.108;2023-01-08T09:05:04;0.80;99.90
26063;DHT22;13837;48.562;12.108;2023-01-08T09:07:30;0.90;99.90
26063;DHT22;13837;48.562;12.108;2023-01-08T09:09:56;1.00;99.90
26063;DHT22;13837;48.562;12.108;2023-01-08T09:12:21;1.10;99.90
26063;DHT22;13837;48.562;12.108;2023-01-08T09:14:47;1.10;99.90
26063;DHT22;13837;48.562;12.108;2023-01-08T09:17:14;1.20;99.90
26063;DHT22;13837;48.562;12.108;2023-01-08T09:19:40;1.40;99.90
26063;DHT22;13837;48.562;12.108;2023-01-08T09:22:06;1.40;99.90
26063;DHT22;13837;48.562;12.108;2023-01-08T09:24:31;1.50;99.90
26063;DHT22;13837;48.562;12.108;2023-01-08T09:26:57;1.60;99.90
26063;DHT22;13837;48.562;12.108;2023-01-08T09:29:24;1.60;99.90
26063;DHT22;13837;48.562;12.108;2023-01-08T09:31:49;1.70;99.90
26063;DHT22;13837;48.562;12.108;2023-01-08T09:34:15;1.70;99.90
26063;DHT22;13837;48.562;12.108;2023-01-08T09:36:41;1.70;99.90
26063;DHT22;13837;48.562;12.108;2023-01-08T09:39:07;1.80;99.90
26063;DHT22;13837;48.562;12.108;2023-01-08T09:41:38;1.80;99.90
26063;DHT22;13837;48.562;12.108;2023-01-08T09:44:05;1.90;99.90
26063;DHT22;13837;48.562;12.108;2023-01-08T09:46:32;2.10;99.90
26063;DHT22;13837;48.562;12.108;2023-01-08T09:49:03;2.10;99.90
26063;DHT22;13837;48.562;12.108;2023-01-08T09:51:37;2.20;99.90
26063;DHT22;13837;48.562;12.108;2023-01-08T09:54:04;2.40;99.90
26063;DHT22;13837;48.562;12.108;2023-01-08T09:56:35;2.60;99.90
26063;DHT22;13837;48.562;12.108;2023-01-08T09:59:03;2.70;99.90
26063;DHT22;13837;48.562;12.108;2023-01-08T10:01:36;2.70;99.90
26063;DHT22;13837;48.562;12.108;2023-01-08T10:06:49;2.80;99.90
26063;DHT22;13837;48.562;12.108;2023-01-08T10:09:16;2.90;99.90
26063;DHT22;13837;48.562;12.108;2023-01-08T10:11:45;2.90;99.90
26063;DHT22;13837;48.562;12.108;2023-01-08T10:14:21;3.00;99.90
26063;DHT22;13837;48.562;12.108;2023-01-08T10:19:35;3.60;99.90
26063;DHT22;13837;48.562;12.108;2023-01-08T10:22:01;4.50;99.90
26063;DHT22;13837;48.562;12.108;2023-01-08T10:24:45;5.10;99.90
26063;DHT22;13837;48.562;12.108;2023-01-08T10:27:22;5.70;99.90
26063;DHT22;13837;48.562;12.108;2023-01-08T10:29:51;6.10;99.90
26063;DHT22;13837;48.562;12.108;2023-01-08T10:32:31;6.50;99.90
26063;DHT22;13837;48.562;12.108;2023-01-08T10:35:03;6.70;99.90
26063;DHT22;13837;48.562;12.108;2023-01-08T10:37:33;6.50;99.90
26063;DHT22;13837;48.562;12.108;2023-01-08T10:40:24;6.00;99.90
26063;DHT22;13837;48.562;12.108;2023-01-08T10:42:51;5.60;99.90
26063;DHT22;13837;48.562;12.108;2023-01-08T10:45:23;5.40;99.90
26063;DHT22;13837;48.562;12.108;2023-01-08T10:47:54;5.10;99.90
26063;DHT22;13837;48.562;12.108;2023-01-08T10:50:28;4.90;99.90
26063;DHT22;13837;48.562;12.108;2023-01-08T10:53:00;4.80;99.90
26063;DHT22;13837;48.562;12.108;2023-01-08T10:58:03;4.60;99.90
26063;DHT22;13837;48.562;12.108;2023-01-08T11:00:31;4.70;99.90
26063;DHT22;13837;48.562;12.108;2023-01-08T11:03:02;4.80;99.90
26063;DHT22;13837;48.562;12.108;2023-01-08T11:05:33;4.70;99.90
26063;DHT22;13837;48.562;12.108;2023-01-08T11:08:01;4.80;99.90
26063;DHT22;13837;48.562;12.108;2023-01-08T11:10:28;4.70;99.90
26063;DHT22;13837;48.562;12.108;2023-01-08T11:13:18;5.00;99.90
26063;DHT22;13837;48.562;12.108;2023-01-08T11:15:44;5.10;99.90
26063;DHT22;13837;48.562;12.108;2023-01-08T11:20:42;5.40;99.90
26063;DHT22;13837;48.562;12.108;2023-01-08T11:25:46;5.50;99.90
26063;DHT22;13837;48.562;12.108;2023-01-08T11:28:18;5.60;99.90
26063;DHT22;13837;48.562;12.108;2023-01-08T11:30:58;5.60;99.90
26063;DHT22;13837;48.562;12.108;2023-01-08T11:33:30;5.50;99.90
26063;DHT22;13837;48.562;12.108;2023-01-08T11:36:09;5.50;99.90
26063;DHT22;13837;48.562;12.108;2023-01-08T11:38:36;5.50;99.90
26063;DHT22;13837;48.562;12.108;2023-01-08T11:41:17;5.40;99.90
26063;DHT22;13837;48.562;12.108;2023-01-08T11:44:13;5.50;99.90
26063;DHT22;13837;48.562;12.108;2023-01-08T11:47:01;5.60;99.90
26063;DHT22;13837;48.562;12.108;2023-01-08T11:52:16;5.20;99.90
26063;DHT22;13837;48.562;12.108;2023-01-08T12:00:49;5.30;99.90
26063;DHT22;13837;48.562;12.108;2023-01-08T12:08:51;5.50;99.90
26063;DHT22;13837;48.562;12.108;2023-01-08T12:22:35;5.70;99.90
26063;DHT22;13837;48.562;12.108;2023-01-08T12:25:30;5.80;99.90
26063;DHT22;13837;48.562;12.108;2023-01-08T12:34:18;5.90;99.90
26063;DHT22;13837;48.562;12.108;2023-01-08T12:36:49;5.60;99.90
26063;DHT22;13837;48.562;12.108;2023-01-08T12:39:26;5.70;99.90
26063;DHT22;13837;48.562;12.108;2023-01-08T12:41:58;5.80;99.90
26063;DHT22;13837;48.562;12.108;2023-01-08T12:44:29;5.90;99.90
26063;DHT22;13837;48.562;12.108;2023-01-08T12:46:57;5.90;99.90
26063;DHT22;13837;48.562;12.108;2023-01-08T12:49:32;6.00;99.90
26063;DHT22;13837;48.562;12.108;2023-01-08T12:54:37;6.10;99.90
26063;DHT22;13837;48.562;12.108;2023-01-08T12:57:17;6.20;99.90
26063;DHT22;13837;48.562;12.108;2023-01-08T12:59:55;6.20;99.90
26063;DHT22;13837;48.562;12.108;2023-01-08T13:07:43;6.20;99.90
26063;DHT22;13837;48.562;12.108;2023-01-08T13:10:24;6.20;99.90
26063;DHT22;13837;48.562;12.108;2023-01-08T13:12:53;6.10;99.90
26063;DHT22;13837;48.562;12.108;2023-01-08T13:15:28;6.10;99.90
26063;DHT22;13837;48.562;12.108;2023-01-08T13:18:07;6.10;99.90
26063;DHT22;13837;48.562;12.108;2023-01-08T13:20:40;6.00;99.90
26063;DHT22;13837;48.562;12.108;2023-01-08T13:23:06;5.90;99.90
26063;DHT22;13837;48.562;12.108;2023-01-08T13:25:36;5.80;99.90
26063;DHT22;13837;48.562;12.108;2023-01-08T13:28:26;5.90;99.90
26063;DHT22;13837;48.562;12.108;2023-01-08T13:30:53;5.80;99.90
26063;DHT22;13837;48.562;12.108;2023-01-08T13:33:42;5.70;99.90
26063;DHT22;13837;48.562;12.108;2023-01-08T13:36:13;5.70;99.90
26063;DHT22;13837;48.562;12.108;2023-01-08T13:38:40;5.70;99.90
26063;DHT22;13837;48.562;12.108;2023-01-08T13:41:23;5.60;99.90
26063;DHT22;13837;48.562;12.108;2023-01-08T13:44:03;5.50;99.90
26063;DHT22;13837;48.562;12.108;2023-01-08T13:46:31;5.50;99.90
26063;DHT22;13837;48.562;12.108;2023-01-08T13:49:14;5.50;99.90
26063;DHT22;13837;48.562;12.108;2023-01-08T13:51:45;5.40;99.90
26063;DHT22;13837;48.562;12.108;2023-01-08T13:56:41;5.30;99.90
26063;DHT22;13837;48.562;12.108;2023-01-08T14:01:57;5.10;99.90
26063;DHT22;13837;48.562;12.108;2023-01-08T14:04:25;5.10;99.90
26063;DHT22;13837;48.562;12.108;2023-01-08T14:06:51;5.10;99.90
26063;DHT22;13837;48.562;12.108;2023-01-08T14:09:24;5.00;99.90
26063;DHT22;13837;48.562;12.108;2023-01-08T14:11:53;4.90;99.90
26063;DHT22;13837;48.562;12.108;2023-01-08T14:14:23;4.90;99.90
26063;DHT22;13837;48.562;12.108;2023-01-08T14:16:50;4.90;99.90
26063;DHT22;13837;48.562;12.108;2023-01-08T14:19:19;4.90;99.90
26063;DHT22;13837;48.562;12.108;2023-01-08T14:21:54;4.90;99.90
26063;DHT22;13837;48.562;12.108;2023-01-08T14:24:23;4.90;99.90
26063;DHT22;13837;48.562;12.108;2023-01-08T14:26:52;4.80;99.90
26063;DHT22;13837;48.562;12.108;2023-01-08T14:29:21;4.90;99.90
26063;DHT22;13837;48.562;12.108;2023-01-08T14:31:49;4.80;99.90
26063;DHT22;13837;48.562;12.108;2023-01-08T14:34:17;4.70;99.90
26063;DHT22;13837;48.562;12.108;2023-01-08T14:36:44;4.70;99.90
26063;DHT22;13837;48.562;12.108;2023-01-08T14:39:11;4.60;99.90
26063;DHT22;13837;48.562;12.108;2023-01-08T14:41:38;4.60;99.90
26063;DHT22;13837;48.562;12.108;2023-01-08T14:44:24;4.50;99.90
26063;DHT22;13837;48.562;12.108;2023-01-08T14:46:51;4.60;99.90
26063;DHT22;13837;48.562;12.108;2023-01-08T14:49:24;4.60;99.90
26063;DHT22;13837;48.562;12.108;2023-01-08T14:51:51;4.70;99.90
26063;DHT22;13837;48.562;12.108;2023-01-08T14:54:21;4.60;99.90
26063;DHT22;13837;48.562;12.108;2023-01-08T14:56:51;4.70;99.90
26063;DHT22;13837;48.562;12.108;2023-01-08T14:59:20;4.70;99.90
26063;DHT22;13837;48.562;12.108;2023-01-08T15:01:54;4.80;99.90
26063;DHT22;13837;48.562;12.108;2023-01-08T15:04:21;4.80;99.90
26063;DHT22;13837;48.562;12.108;2023-01-08T15:06:48;4.80;99.90
26063;DHT22;13837;48.562;12.108;2023-01-08T15:11:59;4.90;99.90
26063;DHT22;13837;48.562;12.108;2023-01-08T15:14:27;4.80;99.90
26063;DHT22;13837;48.562;12.108;2023-01-08T15:16:55;4.80;99.90
26063;DHT22;13837;48.562;12.108;2023-01-08T15:19:27;4.60;99.90
26063;DHT22;13837;48.562;12.108;2023-01-08T15:21:55;4.70;99.90
26063;DHT22;13837;48.562;12.108;2023-01-08T15:26:52;4.40;99.90
26063;DHT22;13837;48.562;12.108;2023-01-08T15:29:26;4.50;99.90
26063;DHT22;13837;48.562;12.108;2023-01-08T15:32:19;4.60;99.90
26063;DHT22;13837;48.562;12.108;2023-01-08T15:34:46;4.60;99.90
26063;DHT22;13837;48.562;12.108;2023-01-08T15:37:12;4.70;99.90
26063;DHT22;13837;48.562;12.108;2023-01-08T15:39:39;4.60;99.90
26063;DHT22;13837;48.562;12.108;2023-01-08T15:44:59;4.60;99.90
26063;DHT22;13837;48.562;12.108;2023-01-08T15:47:24;4.60;99.90
26063;DHT22;13837;48.562;12.108;2023-01-08T15:49:50;4.50;99.90
26063;DHT22;13837;48.562;12.108;2023-01-08T15:52:20;4.60;99.90
26063;DHT22;13837;48.562;12.108;2023-01-08T15:54:48;4.50;99.90
26063;DHT22;13837;48.562;12.108;2023-01-08T15:57:13;4.50;99.90
26063;DHT22;13837;48.562;12.108;2023-01-08T15:59:40;4.50;99.90
26063;DHT22;13837;48.562;12.108;2023-01-08T16:02:08;4.60;99.90
26063;DHT22;13837;48.562;12.108;2023-01-08T16:04:34;4.50;99.90
26063;DHT22;13837;48.562;12.108;2023-01-08T16:07:00;4.50;99.90
26063;DHT22;13837;48.562;12.108;2023-01-08T16:09:25;4.40;99.90
26063;DHT22;13837;48.562;12.108;2023-01-08T16:11:51;4.50;99.90
26063;DHT22;13837;48.562;12.108;2023-01-08T16:14:17;4.50;99.90
26063;DHT22;13837;48.562;12.108;2023-01-08T16:16:45;4.50;99.90
26063;DHT22;13837;48.562;12.108;2023-01-08T16:19:13;4.60;99.90
26063;DHT22;13837;48.562;12.108;2023-01-08T16:21:40;4.50;99.90
26063;DHT22;13837;48.562;12.108;2023-01-08T16:24:14;4.60;99.90
26063;DHT22;13837;48.562;12.108;2023-01-08T16:26:40;4.60;99.90
26063;DHT22;13837;48.562;12.108;2023-01-08T16:29:06;4.60;99.90
26063;DHT22;13837;48.562;12.108;2023-01-08T16:31:31;4.60;99.90
26063;DHT22;13837;48.562;12.108;2023-01-08T16:34:04;4.60;99.90
26063;DHT22;13837;48.562;12.108;2023-01-08T16:36:30;4.50;99.90
26063;DHT22;13837;48.562;12.108;2023-01-08T16:38:56;4.40;99.90
26063;DHT22;13837;48.562;12.108;2023-01-08T16:41:22;4.40;99.90
26063;DHT22;13837;48.562;12.108;2023-01-08T16:43:47;4.30;99.90
26063;DHT22;13837;48.562;12.108;2023-01-08T16:46:15;4.30;99.90
26063;DHT22;13837;48.562;12.108;2023-01-08T16:48:42;4.30;99.90
26063;DHT22;13837;48.562;12.108;2023-01-08T16:51:09;4.20;99.90
26063;DHT22;13837;48.562;12.108;2023-01-08T16:53:35;4.10;99.90